Latest Weather Observations for Winton

IDQ60801

Issued at 11:05 pm EST Sunday 23 November 2014 (issued every 30 minutes, with the page automatically refreshed every 10 minutes)

About weather observations | Map of weather stations | Latest weather observations for QLD | Other Formats
Station Details ID: 037039 Name: WINTON AIRPORT Lat: -22.36 Lon: 143.08 Height: 192.2 m
Data from the previous 72 hours. | See also: Recent months at Winton
Date/Time
EST
Temp
°C
App
Temp
°C
Dew
Point
Rel
Hum
%
Delta-T
°C
Wind Press
QNH
hPa
Press
MSL
hPa
Rain
since 9 am
mm
Dir
 
Spd
km/h
Gust
km/h
Spd
kts
Gust
kts
23/11:00pm 31.4 29.9 10.7 28 12.0 ENE 9 11 5 6 1011.2 1009.8 0.0
23/10:30pm 32.7 31.4 11.3 27 12.6 ENE 9 15 5 8 1011.2 1009.8 0.0
23/10:00pm 32.2 32.3 13.9 33 11.2 SE 6 11 3 6 1010.9 1009.5 0.0
23/09:30pm 30.5 29.8 11.5 31 11.1 S 6 9 3 5 1010.9 1009.5 0.0
23/09:00pm 32.0 31.3 13.2 31 11.4 E 9 13 5 7 1010.4 1009.1 0.0
23/08:30pm 32.5 33.3 13.7 32 11.5 WSW 2 6 1 3 1010.2 1008.9 0.0
23/08:00pm 32.7 32.5 12.9 30 12.0 WSW 6 7 3 4 1010.0 1008.7 0.0
23/07:30pm 34.0 33.6 14.0 30 12.3 WNW 9 13 5 7 1009.5 1008.2 0.0
23/07:00pm 34.8 33.5 13.6 28 13.0 NNW 13 19 7 10 1009.1 1007.8 0.0
23/06:30pm 35.4 32.9 14.1 28 13.2 NNW 20 28 11 15 1008.7 1007.4 0.0
23/06:00pm 39.1 37.1 12.8 21 16.2 NE 15 20 8 11 1008.5 1007.2 0.0
23/05:30pm 39.3 36.2 12.2 20 16.6 ENE 20 26 11 14 1008.0 1006.7 0.0
23/05:00pm 39.6 36.3 11.7 19 17.0 ENE 20 30 11 16 1008.0 1006.7 0.0
23/04:30pm 38.9 36.1 12.6 21 16.2 NE 19 24 10 13 1007.9 1006.6 0.0
23/04:00pm 38.8 35.0 12.5 21 16.2 NNE 24 32 13 17 1008.1 1006.8 0.0
23/03:30pm 39.5 35.9 9.9 17 17.5 ESE 19 28 10 15 1008.3 1007.0 0.0
23/03:00pm 40.5 38.5 11.6 18 17.6 ENE 13 26 7 14 1008.5 1007.2 0.0
23/02:30pm 39.8 37.0 12.6 20 16.8 NE 19 35 10 19 1008.8 1007.5 0.0
23/02:00pm 40.3 38.8 13.0 20 17.0 ENE 13 32 7 17 1009.4 1008.1 0.0
23/01:30pm 40.8 38.0 12.6 19 17.4 ESE 19 28 10 15 1009.7 1008.4 0.0
23/01:00pm 41.3 40.0 13.8 20 17.3 E 13 26 7 14 1010.6 1009.2 0.0
23/12:30pm 40.9 40.2 14.3 21 16.8 NE 11 19 6 10 1011.0 1009.6 0.0
23/12:00pm 41.0 38.9 15.1 22 16.6 ENE 20 33 11 18 1011.4 1010.0 0.0
23/11:30am 39.3 36.9 14.3 22 15.7 E 20 28 11 15 1011.9 1010.5 0.0
23/11:00am 38.5 36.5 15.0 25 14.9 E 19 28 10 15 1012.3 1010.9 0.0
23/10:30am 36.9 35.1 15.9 28 13.4 ENE 20 30 11 16 1012.7 1011.4 0.0
23/10:00am 36.8 34.4 17.4 32 12.6 ENE 26 35 14 19 1013.0 1011.7 0.0
23/09:30am 33.8 31.3 17.1 37 10.7 ENE 26 32 14 17 1013.0 1011.7 0.0
23/09:00am 32.3 29.7 17.7 41 9.4 E 28 35 15 19 1013.2 1011.9 0.0
23/08:30am 32.3 29.8 16.2 38 10.2 E 24 33 13 18 1013.2 1011.9 0.0
23/08:00am 30.1 29.4 16.5 44 8.6 E 15 19 8 10 1013.0 1011.7 0.0
23/07:30am 28.4 28.8 17.3 51 7.0 E 11 15 6 8 1013.0 1011.7 0.0
23/07:00am 27.4 28.4 17.8 55 6.1 SE 9 11 5 6 1012.5 1011.2 0.0
23/06:30am 27.1 29.1 17.8 56 5.9 E 4 9 2 5 1012.0 1010.6 0.0
23/06:00am 26.5 29.1 17.6 58 5.6 CALM 0 0 0 0 1011.6 1010.2 0.0
23/05:30am 26.5 29.0 17.3 57 5.8 CALM 0 2 0 1 1011.3 1009.9 0.0
23/05:00am 26.8 28.2 17.3 56 6.0 S 6 6 3 3 1011.0 1009.6 0.0
23/04:30am 26.9 28.3 17.7 57 5.8 SSW 7 9 4 5 1010.8 1009.4 0.0
23/04:00am 26.9 28.5 17.9 57 5.7 S 6 7 3 4 1010.9 1009.5 0.0
23/03:30am 27.4 27.8 18.1 57 5.9 S 13 19 7 10 1011.0 1009.6 0.0
23/03:00am 27.2 27.6 18.2 58 5.8 S 13 17 7 9 1011.2 1009.8 0.0
23/02:30am 27.4 26.1 18.1 57 5.9 S 22 32 12 17 1011.3 1009.9 0.0
23/02:00am 27.6 25.5 18.0 55 6.1 S 26 37 14 20 1011.7 1010.3 0.0
23/01:30am 27.6 25.5 18.0 55 6.1 S 26 39 14 21 1012.1 1010.7 0.0
23/01:00am 28.2 24.2 17.7 53 6.7 S 35 48 19 26 1012.0 1010.6 0.0
23/12:30am 29.6 26.2 17.8 49 7.6 S 32 43 17 23 1012.2 1010.8 0.0
23/12:00am 30.2 27.0 17.3 46 8.2 SSW 30 37 16 20 1012.2 1010.8 0.0
 
Date/Time
EST
Temp
°C
App
Temp
°C
Dew
Point
Rel
Hum
%
Delta-T
°C
Wind Press
QNH
hPa
Press
MSL
hPa
Rain
since 9 am
mm
Dir
 
Spd
km/h
Gust
km/h
Spd
kts
Gust
kts
22/11:30pm 32.4 28.9 15.4 36 10.6 WSW 28 35 15 19 1011.6 1010.2 0.0
22/11:00pm 33.8 31.0 15.3 33 11.6 WSW 24 30 13 16 1011.4 1010.0 0.0
22/10:30pm 34.2 32.1 14.7 31 12.1 NW 19 24 10 13 1010.8 1009.4 0.0
22/10:00pm 34.3 31.8 15.2 31 12.0 NW 22 26 12 14 1010.6 1009.2 0.0
22/09:30pm 34.8 32.3 14.1 28 12.8 NNW 20 28 11 15 1010.3 1009.0 0.0
22/09:00pm 33.8 33.9 12.7 27 12.8 NNW 4 6 2 3 1009.5 1008.2 0.0
22/08:30pm 34.6 36.4 15.5 32 12.0 CALM 0 0 0 0 1009.2 1007.9 0.0
22/08:00pm 34.9 36.3 15.3 31 12.4 ESE 2 4 1 2 1008.8 1007.5 0.0
22/07:30pm 36.4 36.6 11.9 23 14.8 W 2 4 1 2 1008.4 1007.1 0.0
22/07:00pm 37.0 36.4 11.8 22 15.2 WNW 6 7 3 4 1008.1 1006.8 0.0
22/06:30pm 38.1 38.3 12.0 21 15.9 NW 2 2 1 1 1007.7 1006.4 0.0
22/06:00pm 38.6 37.6 12.4 21 16.1 NW 9 11 5 6 1007.4 1006.0 0.0
22/05:30pm 38.7 37.6 13.2 22 15.8 NNW 11 15 6 8 1007.1 1005.7 0.0
22/05:00pm 38.6 36.0 13.1 22 15.8 NW 19 30 10 16 1007.0 1005.6 0.0
22/04:30pm 40.6 37.8 12.5 19 17.3 NNW 19 26 10 14 1007.2 1005.8 0.0
22/04:00pm 40.2 38.8 12.1 19 17.3 NNE 11 19 6 10 1007.4 1006.0 0.0
22/03:30pm 41.2 40.3 11.3 17 18.2 ENE 7 15 4 8 1007.7 1006.4 0.0
22/03:00pm 41.2 40.8 13.0 19 17.6 WSW 7 13 4 7 1008.1 1006.8 0.0
22/02:30pm 41.8 40.4 13.4 18 17.8 NW 13 20 7 11 1008.5 1007.2 0.0
22/02:00pm 40.8 39.1 12.6 19 17.5 NNW 13 24 7 13 1009.1 1007.8 0.0
22/01:30pm 40.2 38.3 12.9 20 16.9 N 15 26 8 14 1009.7 1008.4 0.0
22/01:00pm 40.5 39.3 13.9 21 16.7 N 13 20 7 11 1010.2 1008.9 0.0
22/12:30pm 39.3 38.5 15.0 24 15.5 NNW 13 28 7 15 1010.7 1009.3 0.0
22/12:00pm 38.5 37.8 14.3 23 15.2 NNW 11 28 6 15 1011.2 1009.8 0.0
22/11:30am 38.3 36.8 14.2 24 15.1 NNW 15 24 8 13 1011.6 1010.2 0.0
22/11:00am 36.6 34.9 14.6 27 13.8 NW 17 22 9 12 1011.8 1010.4 0.0
22/10:30am 35.9 35.5 16.1 30 12.6 NNW 13 20 7 11 1012.2 1010.8 0.0
22/10:00am 35.4 35.0 17.1 33 11.8 WNW 15 22 8 12 1012.4 1011.1 0.0
22/09:30am 33.1 33.2 16.5 37 10.6 NNW 11 17 6 9 1012.5 1011.2 0.0
22/09:00am 32.1 32.2 16.4 39 10.0 NNW 11 15 6 8 1012.6 1011.3 0.0
22/08:30am 30.6 30.5 17.0 44 8.6 NW 13 20 7 11 1012.7 1011.4 0.0
22/08:00am 30.4 29.2 17.1 44 8.5 WNW 19 24 10 13 1012.3 1010.9 0.0
22/07:30am 29.1 27.3 17.0 48 7.7 WNW 22 28 12 15 1011.7 1010.3 0.0
22/07:00am 28.4 27.8 16.7 49 7.4 NW 15 20 8 11 1011.7 1010.3 0.0
22/06:30am 27.3 27.3 16.3 51 6.8 NNW 11 17 6 9 1011.7 1010.3 0.0
22/06:00am 26.2 25.8 15.3 51 6.7 NNW 11 15 6 8 1011.6 1010.2 0.0
22/05:30am 25.7 25.3 14.2 49 6.9 NNW 9 13 5 7 1011.3 1009.9 0.0
22/05:00am 25.9 25.4 13.7 47 7.3 NNW 9 13 5 7 1011.1 1009.7 0.0
22/04:30am 26.1 25.5 13.6 46 7.4 NW 9 11 5 6 1010.8 1009.4 0.0
22/04:00am 25.9 25.4 12.7 44 7.7 NW 7 9 4 5 1010.6 1009.2 0.0
22/03:30am 26.4 26.3 13.2 44 7.8 N 6 7 3 4 1010.6 1009.2 0.0
22/03:00am 26.7 26.6 13.8 45 7.7 NE 7 11 4 6 1010.6 1009.2 0.0
22/02:30am 27.9 27.9 14.2 43 8.3 N 7 9 4 5 1010.6 1009.2 0.0
22/02:00am 28.1 27.8 15.4 46 7.8 N 11 15 6 8 1010.9 1009.5 0.0
22/01:30am 28.3 28.9 15.2 44 8.0 N 6 9 3 5 1010.6 1009.2 0.0
22/01:00am 28.2 27.9 14.4 42 8.4 WSW 9 11 5 6 1010.0 1008.7 0.0
22/12:30am 28.1 28.3 14.3 42 8.4 SSW 6 6 3 3 1009.7 1008.4 0.0
22/12:00am 28.3 29.0 14.5 43 8.4 W 4 7 2 4 1009.8 1008.5 0.0
 
Date/Time
EST
Temp
°C
App
Temp
°C
Dew
Point
Rel
Hum
%
Delta-T
°C
Wind Press
QNH
hPa
Press
MSL
hPa
Rain
since 9 am
mm
Dir
 
Spd
km/h
Gust
km/h
Spd
kts
Gust
kts
21/11:30pm 28.9 28.6 15.4 44 8.3 NW 11 19 6 10 1010.0 1008.7 0.0
21/11:00pm 29.3 28.0 15.8 44 8.4 WNW 17 22 9 12 1009.8 1008.5 0.0
21/10:30pm 30.1 29.8 15.4 41 9.1 WNW 11 15 6 8 1010.1 1008.8 0.0
21/10:00pm 30.8 31.1 14.4 36 10.1 WNW 6 9 3 5 1010.3 1009.0 0.0
21/09:30pm 31.4 30.6 15.0 37 10.2 N 13 17 7 9 1010.2 1008.9 0.0
21/09:00pm 31.5 30.1 15.5 38 10.0 N 17 24 9 13 1010.1 1008.8 0.0
21/08:30pm 31.7 30.5 16.0 38 9.9 NNW 17 20 9 11 1010.1 1008.8 0.0
21/08:00pm 32.1 31.2 16.8 40 9.8 N 17 24 9 13 1009.4 1008.1 0.0
21/07:30pm 32.8 31.1 16.2 37 10.5 N 20 30 11 16 1008.7 1007.4 0.0
21/07:00pm 33.3 30.1 16.2 36 10.9 N 28 35 15 19 1008.0 1006.7 0.0
21/06:30pm 34.2 29.8 15.6 32 11.7 N 33 43 18 23 1007.5 1006.1 0.0
21/06:05pm 36.7 32.5 15.8 29 13.3 NNW 32 52 17 28 1007.1 1005.7 0.0
21/06:00pm 37.0 33.5 15.5 28 13.7 NNW 28 33 15 18 1006.7 1005.3 0.0
21/05:30pm 38.2 33.9 15.3 25 14.6 NW 32 43 17 23 1006.3 1004.9 0.0
21/05:25pm 38.2 34.2 15.3 25 14.6 NW 30 43 16 23 1006.2 1004.8 0.0
21/05:00pm 40.0 36.8 11.2 18 17.5 NW 19 24 10 13 1005.7 1004.3 0.0
21/04:30pm 39.8 36.8 11.8 19 17.1 N 19 26 10 14 1005.8 1004.4 0.0
21/04:00pm 40.1 36.3 11.3 18 17.5 N 22 30 12 16 1005.7 1004.3 0.0
21/03:30pm 41.3 36.4 11.3 17 18.3 N 28 44 15 24 1005.6 1004.2 0.0
21/03:00pm 42.4 37.5 11.3 16 19.1 N 28 37 15 20 1005.9 1004.5 0.0
21/02:30pm 40.5 35.4 10.7 17 17.9 N 28 39 15 21 1006.3 1004.9 0.0
21/02:00pm 41.0 37.8 11.1 17 18.2 NNE 19 32 10 17 1007.0 1005.6 0.0
21/01:54pm 40.7 35.7 10.9 17 18.0 NNE 28 48 15 26 1007.1 1005.7 0.0
21/01:30pm 42.6 37.4 11.5 16 19.1 NNE 30 41 16 22 1007.4 1006.0 0.0
21/01:00pm 42.2 38.0 8.1 13 20.0 WNW 20 33 11 18 1008.0 1006.7 0.0
21/12:30pm 42.4 40.2 9.3 14 19.7 W 11 22 6 12 1008.4 1007.1 0.0
21/12:00pm 42.1 39.7 10.1 15 19.2 WNW 13 30 7 16 1008.9 1007.6 0.0
21/11:30am 41.0 39.0 10.2 16 18.4 WNW 11 24 6 13 1009.4 1008.1 0.0
21/11:00am 42.3 39.1 11.2 16 19.0 NNW 19 32 10 17 1009.8 1008.5 0.0
21/10:30am 40.0 36.9 13.5 21 16.6 NNW 22 33 12 18 1010.0 1008.7 0.0
21/10:00am 39.5 36.6 15.2 24 15.5 NNW 24 35 13 19 1010.3 1009.0 0.0
21/09:30am 38.0 35.6 16.3 27 14.0 NNW 24 32 13 17 1010.9 1009.5 0.0
21/09:00am 36.5 34.6 16.6 30 12.8 N 22 32 12 17 1011.0 1009.6 0.0
21/08:30am 34.8 32.1 15.7 32 12.1 N 24 32 13 17 1011.1 1009.7 0.0
21/08:00am 33.3 30.0 13.9 31 11.9 N 24 30 13 16 1011.0 1009.6 0.0
21/07:30am 31.9 28.2 12.7 31 11.5 N 24 30 13 16 1011.1 1009.7 0.0
21/07:00am 29.7 26.7 10.8 31 10.9 N 17 24 9 13 1010.8 1009.4 0.0
21/06:30am 25.6 21.9 2.3 22 11.3 N 11 17 6 9 1010.1 1008.8 0.0
21/06:00am 23.0 19.0 0.2 22 10.5 E 11 15 6 8 1009.5 1008.2 0.0
21/05:30am 23.3 20.1 -3.1 17 11.4 E 4 4 2 2 1009.0 1007.7 0.0
21/05:00am 23.1 18.0 -4.9 15 11.7 NNE 13 17 7 9 1008.6 1007.3 0.0
21/04:30am 24.2 21.6 -4.9 14 12.2 CALM 0 0 0 0 1008.1 1006.8 0.0
21/04:00am 26.2 23.3 -4.4 13 13.3 SE 2 4 1 2 1007.9 1006.6 0.0
21/03:30am 26.5 23.2 -4.1 13 13.3 ESE 4 4 2 2 1007.9 1006.6 0.0
21/03:00am 26.6 23.3 -4.0 13 13.4 NNE 4 6 2 3 1008.0 1006.7 0.0
21/02:30am 26.6 23.0 -4.0 13 13.4 NE 6 9 3 5 1008.2 1006.9 0.0
21/02:00am 25.8 21.4 -5.7 12 13.3 ENE 9 15 5 8 1008.1 1006.8 0.0
21/01:30am 26.2 21.6 -4.4 13 13.2 NE 11 17 6 9 1007.8 1006.5 0.0
21/01:00am 27.6 24.8 -3.3 13 13.8 S 2 2 1 1 1007.7 1006.4 0.0
21/12:30am 28.4 23.8 -3.7 12 14.3 SSW 11 13 6 7 1007.8 1006.5 0.0
21/12:00am 28.6 24.4 -3.6 12 14.4 SSW 9 9 5 5 1008.0 1006.7 0.0
 
Date/Time
EST
Temp
°C
App
Temp
°C
Dew
Point
Rel
Hum
%
Delta-T
°C
Wind Press
QNH
hPa
Press
MSL
hPa
Rain
since 9 am
mm
Dir
 
Spd
km/h
Gust
km/h
Spd
kts
Gust
kts
20/11:30pm 29.3 25.1 -4.2 11 14.9 SSW 9 11 5 6 1008.1 1006.8 0.0

Other Formats:

Comma delimited format used in spreadsheet applications
http://www.bom.gov.au/fwo/IDQ60801/IDQ60801.94342.axf

JavaScript Object Notation format (JSON) in row-major order
http://www.bom.gov.au/fwo/IDQ60801/IDQ60801.94342.json